sensor_id;sensor_type;location;lat;lon;timestamp;temperature;humidity
1079;DHT22;528;47.872;11.478;2022-07-23T00:50:42;23.10;99.90
1079;DHT22;528;47.872;11.478;2022-07-23T00:53:23;23.20;99.90
1079;DHT22;528;47.872;11.478;2022-07-23T00:56:01;23.10;99.90
1079;DHT22;528;47.872;11.478;2022-07-23T00:58:33;23.10;99.90
1079;DHT22;528;47.872;11.478;2022-07-23T01:01:10;23.10;99.90
1079;DHT22;528;47.872;11.478;2022-07-23T01:22:08;23.00;99.90
1079;DHT22;528;47.872;11.478;2022-07-23T01:24:46;22.90;99.90
1079;DHT22;528;47.872;11.478;2022-07-23T01:27:27;23.00;99.90
1079;DHT22;528;47.872;11.478;2022-07-23T01:30:27;22.90;99.90
1079;DHT22;528;47.872;11.478;2022-07-23T01:33:21;22.90;99.90
1079;DHT22;528;47.872;11.478;2022-07-23T01:35:49;22.80;99.30
1079;DHT22;528;47.872;11.478;2022-07-23T01:38:32;22.80;98.00
1079;DHT22;528;47.872;11.478;2022-07-23T01:41:22;22.70;98.10
1079;DHT22;528;47.872;11.478;2022-07-23T01:43:56;22.70;97.40
1079;DHT22;528;47.872;11.478;2022-07-23T01:46:30;22.70;97.80
1079;DHT22;528;47.872;11.478;2022-07-23T01:48:58;22.60;97.80
1079;DHT22;528;47.872;11.478;2022-07-23T01:51:56;22.60;97.50
1079;DHT22;528;47.872;11.478;2022-07-23T01:54:46;22.60;97.90
1079;DHT22;528;47.872;11.478;2022-07-23T01:57:24;22.60;98.00
1079;DHT22;528;47.872;11.478;2022-07-23T02:00:01;22.70;98.30
1079;DHT22;528;47.872;11.478;2022-07-23T02:02:35;22.70;98.20
1079;DHT22;528;47.872;11.478;2022-07-23T02:07:49;22.60;97.20
1079;DHT22;528;47.872;11.478;2022-07-23T02:10:17;22.40;97.60
1079;DHT22;528;47.872;11.478;2022-07-23T02:23:16;22.20;97.50
1079;DHT22;528;47.872;11.478;2022-07-23T02:26:12;22.30;97.80
1079;DHT22;528;47.872;11.478;2022-07-23T02:31:40;22.10;98.50
1079;DHT22;528;47.872;11.478;2022-07-23T02:34:24;21.90;98.80
1079;DHT22;528;47.872;11.478;2022-07-23T02:37:14;21.90;98.90
1079;DHT22;528;47.872;11.478;2022-07-23T02:46:44;22.10;98.90
1079;DHT22;528;47.872;11.478;2022-07-23T02:49:37;22.10;98.40
1079;DHT22;528;47.872;11.478;2022-07-23T02:52:38;22.10;98.40
1079;DHT22;528;47.872;11.478;2022-07-23T02:55:21;22.10;98.60
1079;DHT22;528;47.872;11.478;2022-07-23T02:58:08;22.10;98.70
1079;DHT22;528;47.872;11.478;2022-07-23T03:01:21;22.20;99.40
1079;DHT22;528;47.872;11.478;2022-07-23T03:04:18;22.10;99.80
1079;DHT22;528;47.872;11.478;2022-07-23T03:07:08;22.20;99.60
1079;DHT22;528;47.872;11.478;2022-07-23T03:10:55;22.10;99.90
1079;DHT22;528;47.872;11.478;2022-07-23T03:16:38;22.10;99.90
1079;DHT22;528;47.872;11.478;2022-07-23T03:20:00;22.10;99.50
1079;DHT22;528;47.872;11.478;2022-07-23T06:57:36;21.30;99.90
1079;DHT22;528;47.872;11.478;2022-07-23T07:00:39;21.10;99.90
1079;DHT22;528;47.872;11.478;2022-07-23T07:03:28;21.10;99.90
1079;DHT22;528;47.872;11.478;2022-07-23T07:13:03;21.10;99.90
1079;DHT22;528;47.872;11.478;2022-07-23T07:15:49;21.10;99.90
1079;DHT22;528;47.872;11.478;2022-07-23T07:20:08;21.10;99.90
1079;DHT22;528;47.872;11.478;2022-07-23T07:21:51;21.10;99.90
1079;DHT22;528;47.872;11.478;2022-07-23T07:28:24;21.20;99.90
1079;DHT22;528;47.872;11.478;2022-07-23T07:31:15;21.20;99.90
1079;DHT22;528;47.872;11.478;2022-07-23T07:34:29;21.40;99.90
1079;DHT22;528;47.872;11.478;2022-07-23T07:37:47;21.40;99.90
1079;DHT22;528;47.872;11.478;2022-07-23T08:01:18;21.80;99.90
1079;DHT22;528;47.872;11.478;2022-07-23T08:04:00;21.80;99.90
1079;DHT22;528;47.872;11.478;2022-07-23T08:06:46;21.80;99.90
1079;DHT22;528;47.872;11.478;2022-07-23T08:09:53;21.80;99.90
1079;DHT22;528;47.872;11.478;2022-07-23T13:06:32;24.60;99.90
1079;DHT22;528;47.872;11.478;2022-07-23T14:32:10;22.60;99.90
1079;DHT22;528;47.872;11.478;2022-07-23T14:41:38;22.60;99.90
1079;DHT22;528;47.872;11.478;2022-07-23T14:44:40;22.60;99.90
1079;DHT22;528;47.872;11.478;2022-07-23T17:16:17;24.60;99.90
1079;DHT22;528;47.872;11.478;2022-07-23T17:23:12;24.60;99.90
1079;DHT22;528;47.872;11.478;2022-07-23T17:25:56;24.70;99.90
1079;DHT22;528;47.872;11.478;2022-07-23T17:28:51;24.70;99.90
1079;DHT22;528;47.872;11.478;2022-07-23T17:31:38;24.70;99.90
1079;DHT22;528;47.872;11.478;2022-07-23T17:34:18;24.70;99.90
1079;DHT22;528;47.872;11.478;2022-07-23T17:36:55;24.70;99.90
1079;DHT22;528;47.872;11.478;2022-07-23T17:39:40;24.70;99.90
1079;DHT22;528;47.872;11.478;2022-07-23T17:42:17;24.70;99.90
1079;DHT22;528;47.872;11.478;2022-07-23T17:44:47;24.70;99.90
1079;DHT22;528;47.872;11.478;2022-07-23T17:47:26;24.70;99.90
1079;DHT22;528;47.872;11.478;2022-07-23T17:50:31;24.60;99.90
1079;DHT22;528;47.872;11.478;2022-07-23T17:57:45;24.60;99.90
1079;DHT22;528;47.872;11.478;2022-07-23T18:48:55;23.90;99.90
1079;DHT22;528;47.872;11.478;2022-07-23T18:51:33;23.80;99.90
1079;DHT22;528;47.872;11.478;2022-07-23T18:54:08;23.70;99.90
1079;DHT22;528;47.872;11.478;2022-07-23T18:56:51;23.70;99.90
1079;DHT22;528;47.872;11.478;2022-07-23T18:59:49;23.60;99.90
1079;DHT22;528;47.872;11.478;2022-07-23T19:02:29;23.50;99.90
1079;DHT22;528;47.872;11.478;2022-07-23T19:18:50;23.20;99.90
1079;DHT22;528;47.872;11.478;2022-07-23T19:21:42;23.10;99.90
1079;DHT22;528;47.872;11.478;2022-07-23T19:24:50;22.90;99.90
1079;DHT22;528;47.872;11.478;2022-07-23T19:27:35;22.90;99.90
1079;DHT22;528;47.872;11.478;2022-07-23T19:30:35;22.90;99.90
1079;DHT22;528;47.872;11.478;2022-07-23T19:33:11;22.80;99.90
1079;DHT22;528;47.872;11.478;2022-07-23T19:38:57;22.70;99.90
1079;DHT22;528;47.872;11.478;2022-07-23T19:41:36;22.60;99.90
1079;DHT22;528;47.872;11.478;2022-07-23T19:44:21;22.50;99.90
1079;DHT22;528;47.872;11.478;2022-07-23T19:47:10;22.50;99.90
1079;DHT22;528;47.872;11.478;2022-07-23T19:49:46;22.50;99.90
1079;DHT22;528;47.872;11.478;2022-07-23T19:52:55;22.50;99.90
1079;DHT22;528;47.872;11.478;2022-07-23T19:55:29;22.40;99.90
1079;DHT22;528;47.872;11.478;2022-07-23T19:57:58;22.30;99.90
1079;DHT22;528;47.872;11.478;2022-07-23T20:00:35;22.30;99.90
1079;DHT22;528;47.872;11.478;2022-07-23T20:03:20;22.30;99.90
1079;DHT22;528;47.872;11.478;2022-07-23T20:05:52;22.30;99.90
1079;DHT22;528;47.872;11.478;2022-07-23T20:08:32;22.30;99.90
1079;DHT22;528;47.872;11.478;2022-07-23T20:11:20;22.40;99.90
1079;DHT22;528;47.872;11.478;2022-07-23T20:14:27;22.40;99.90
1079;DHT22;528;47.872;11.478;2022-07-23T20:20:08;22.30;99.90
1079;DHT22;528;47.872;11.478;2022-07-23T20:23:12;22.30;99.90
1079;DHT22;528;47.872;11.478;2022-07-23T20:26:23;22.30;99.90
1079;DHT22;528;47.872;11.478;2022-07-23T20:29:20;22.30;99.90
1079;DHT22;528;47.872;11.478;2022-07-23T20:32:20;22.30;99.90
1079;DHT22;528;47.872;11.478;2022-07-23T20:36:08;22.30;99.90
1079;DHT22;528;47.872;11.478;2022-07-23T20:38:36;22.20;99.90
1079;DHT22;528;47.872;11.478;2022-07-23T20:41:26;22.30;99.90
1079;DHT22;528;47.872;11.478;2022-07-23T20:44:14;22.30;99.90
1079;DHT22;528;47.872;11.478;2022-07-23T20:46:53;22.20;99.90
1079;DHT22;528;47.872;11.478;2022-07-23T20:49:27;22.20;99.90
1079;DHT22;528;47.872;11.478;2022-07-23T20:51:59;22.10;99.90
1079;DHT22;528;47.872;11.478;2022-07-23T20:54:41;22.10;99.90
1079;DHT22;528;47.872;11.478;2022-07-23T20:57:14;22.10;99.90
1079;DHT22;528;47.872;11.478;2022-07-23T20:59:49;22.10;99.90
1079;DHT22;528;47.872;11.478;2022-07-23T21:02:27;22.10;99.90
1079;DHT22;528;47.872;11.478;2022-07-23T21:05:03;22.10;99.90
1079;DHT22;528;47.872;11.478;2022-07-23T21:07:34;22.00;99.90
1079;DHT22;528;47.872;11.478;2022-07-23T21:10:15;22.00;99.90
1079;DHT22;528;47.872;11.478;2022-07-23T21:12:50;22.00;99.90
1079;DHT22;528;47.872;11.478;2022-07-23T21:15:21;22.00;99.90
1079;DHT22;528;47.872;11.478;2022-07-23T21:18:01;22.00;99.90
1079;DHT22;528;47.872;11.478;2022-07-23T21:20:36;21.90;99.90
1079;DHT22;528;47.872;11.478;2022-07-23T21:25:40;21.90;99.90
1079;DHT22;528;47.872;11.478;2022-07-23T21:26:41;21.90;99.90
1079;DHT22;528;47.872;11.478;2022-07-23T21:29:11;21.90;99.90
1079;DHT22;528;47.872;11.478;2022-07-23T21:31:45;21.90;99.90
1079;DHT22;528;47.872;11.478;2022-07-23T21:34:27;21.80;99.90
1079;DHT22;528;47.872;11.478;2022-07-23T21:37:07;21.70;99.90
1079;DHT22;528;47.872;11.478;2022-07-23T21:40:04;21.60;99.90
1079;DHT22;528;47.872;11.478;2022-07-23T21:42:54;21.70;99.90
1079;DHT22;528;47.872;11.478;2022-07-23T21:45:41;21.60;99.90
1079;DHT22;528;47.872;11.478;2022-07-23T21:49:05;21.70;99.90
1079;DHT22;528;47.872;11.478;2022-07-23T21:56:48;21.70;99.90
1079;DHT22;528;47.872;11.478;2022-07-23T21:59:30;21.60;99.90
1079;DHT22;528;47.872;11.478;2022-07-23T22:02:19;21.70;99.90
1079;DHT22;528;47.872;11.478;2022-07-23T22:05:12;21.70;99.90
1079;DHT22;528;47.872;11.478;2022-07-23T22:07:42;21.60;99.90
1079;DHT22;528;47.872;11.478;2022-07-23T22:10:16;21.50;99.90
1079;DHT22;528;47.872;11.478;2022-07-23T22:13:00;21.50;99.90
1079;DHT22;528;47.872;11.478;2022-07-23T22:15:34;21.50;99.90
1079;DHT22;528;47.872;11.478;2022-07-23T22:18:07;21.40;99.90
1079;DHT22;528;47.872;11.478;2022-07-23T22:20:37;21.50;99.90
1079;DHT22;528;47.872;11.478;2022-07-23T22:23:09;21.50;99.90
1079;DHT22;528;47.872;11.478;2022-07-23T22:25:45;21.60;99.90
1079;DHT22;528;47.872;11.478;2022-07-23T22:28:17;21.50;99.90
1079;DHT22;528;47.872;11.478;2022-07-23T22:30:48;21.40;99.90
1079;DHT22;528;47.872;11.478;2022-07-23T22:33:20;21.30;99.90
1079;DHT22;528;47.872;11.478;2022-07-23T22:35:51;21.30;99.90
1079;DHT22;528;47.872;11.478;2022-07-23T22:38:21;21.30;99.90
1079;DHT22;528;47.872;11.478;2022-07-23T22:40:55;21.40;99.90
1079;DHT22;528;47.872;11.478;2022-07-23T22:43:38;21.40;99.90
1079;DHT22;528;47.872;11.478;2022-07-23T22:46:11;21.30;99.90
1079;DHT22;528;47.872;11.478;2022-07-23T22:48:47;21.30;99.90
1079;DHT22;528;47.872;11.478;2022-07-23T22:51:19;21.30;99.90
1079;DHT22;528;47.872;11.478;2022-07-23T22:53:50;21.30;99.90
1079;DHT22;528;47.872;11.478;2022-07-23T22:56:20;21.30;99.90
1079;DHT22;528;47.872;11.478;2022-07-23T22:58:54;21.30;99.90
1079;DHT22;528;47.872;11.478;2022-07-23T23:01:26;21.30;99.90
1079;DHT22;528;47.872;11.478;2022-07-23T23:03:55;21.20;99.90
1079;DHT22;528;47.872;11.478;2022-07-23T23:06:25;21.10;99.90
1079;DHT22;528;47.872;11.478;2022-07-23T23:08:56;21.10;99.90
1079;DHT22;528;47.872;11.478;2022-07-23T23:11:34;21.00;99.90
1079;DHT22;528;47.872;11.478;2022-07-23T23:14:08;21.10;99.90
1079;DHT22;528;47.872;11.478;2022-07-23T23:16:40;21.10;99.90
1079;DHT22;528;47.872;11.478;2022-07-23T23:19:22;21.10;99.90
1079;DHT22;528;47.872;11.478;2022-07-23T23:21:56;21.20;99.90
1079;DHT22;528;47.872;11.478;2022-07-23T23:24:30;21.20;99.90
1079;DHT22;528;47.872;11.478;2022-07-23T23:27:11;21.20;99.90
1079;DHT22;528;47.872;11.478;2022-07-23T23:29:53;21.20;99.90
1079;DHT22;528;47.872;11.478;2022-07-23T23:32:26;21.20;99.90
1079;DHT22;528;47.872;11.478;2022-07-23T23:35:20;21.10;99.90
1079;DHT22;528;47.872;11.478;2022-07-23T23:37:51;21.20;99.90
1079;DHT22;528;47.872;11.478;2022-07-23T23:40:44;21.20;99.90
1079;DHT22;528;47.872;11.478;2022-07-23T23:43:17;21.20;99.90
1079;DHT22;528;47.872;11.478;2022-07-23T23:46:03;21.20;99.90
1079;DHT22;528;47.872;11.478;2022-07-23T23:48:35;21.20;99.90
1079;DHT22;528;47.872;11.478;2022-07-23T23:51:22;21.20;99.90
1079;DHT22;528;47.872;11.478;2022-07-23T23:53:56;21.20;99.90
1079;DHT22;528;47.872;11.478;2022-07-23T23:56:34;21.30;99.90
1079;DHT22;528;47.872;11.478;2022-07-23T23:59:19;21.20;99.90
